Time;durP1;ratioP1;P1;durP2;ratioP2;P2;SDS_P1;SDS_P2;PMS_P1;PMS_P2;Temp;Humidity;BMP_temperature;BMP_pressure;BME280_temperature;BME280_humidity;BME280_pressure;Samples;Min_cycle;Max_cycle;Signal;HPM_P1;HPM_P2
2024/03/11 00:01:57;;;;;;;2.47;1.70;;;;;;;9.93;94.28;96473.44;5187794;22;20575;-83
2024/03/11 00:04:00;;;;;;;2.67;1.77;;;;;;;9.93;94.24;96482.09;5161530;23;20576;-82
2024/03/11 00:06:03;;;;;;;2.67;1.63;;;;;;;9.93;94.82;96481.25;5187931;22;20604;-84
2024/03/11 00:08:09;;;;;;;3.17;2.13;;;;;;;9.92;95.76;96480.44;5161789;23;20576;-83
2024/03/11 00:10:12;;;;;;;2.93;1.60;;;;;;;9.91;94.50;96483.19;5161709;23;20595;-83
2024/03/11 00:12:22;;;;;;;2.70;1.90;;;;;;;9.91;94.95;96488.41;5160229;23;20638;-83
2024/03/11 00:14:28;;;;;;;2.33;1.60;;;;;;;9.88;95.17;96489.47;5160426;23;20576;-83
2024/03/11 00:16:32;;;;;;;3.43;1.90;;;;;;;9.87;94.74;96487.84;5136237;23;20970;-83
2024/03/11 00:18:36;;;;;;;2.83;1.97;;;;;;;9.86;95.18;96491.41;5162815;23;20583;-83
2024/03/11 00:20:40;;;;;;;3.33;1.70;;;;;;;9.88;95.43;96496.50;5161585;23;20611;-83
2024/03/11 00:22:46;;;;;;;3.37;1.50;;;;;;;9.89;95.40;96500.72;5162048;23;20600;-83
2024/03/11 00:24:49;;;;;;;2.70;1.57;;;;;;;9.90;95.93;96499.75;5189727;22;20563;-83
2024/03/11 00:26:53;;;;;;;2.70;1.80;;;;;;;9.89;95.45;96504.16;5186696;22;20575;-83
2024/03/11 00:28:56;;;;;;;2.40;1.70;;;;;;;9.88;96.37;96499.91;5136825;23;20664;-83
2024/03/11 00:31:02;;;;;;;2.93;1.63;;;;;;;9.90;96.30;96502.38;5188456;22;20575;-83
2024/03/11 00:33:06;;;;;;;3.00;1.77;;;;;;;9.87;96.55;96500.03;5135640;23;20636;-83
2024/03/11 00:35:11;;;;;;;2.73;1.80;;;;;;;9.84;96.04;96501.13;5135435;23;21449;-83
2024/03/11 00:37:15;;;;;;;3.00;1.87;;;;;;;9.86;95.81;96504.44;5160507;23;20585;-83
2024/03/11 00:39:18;;;;;;;1.93;1.40;;;;;;;9.84;96.07;96504.72;5134874;23;20644;-83
2024/03/11 00:41:21;;;;;;;3.50;2.20;;;;;;;9.88;96.24;96520.72;5161378;23;20695;-83
2024/03/11 00:43:25;;;;;;;2.97;2.27;;;;;;;9.86;96.02;96517.44;5136755;23;20600;-83
2024/03/11 00:45:27;;;;;;;2.60;1.80;;;;;;;9.85;95.15;96504.56;5187929;22;20670;-83
2024/03/11 00:47:30;;;;;;;2.30;1.60;;;;;;;9.84;94.95;96514.16;5136123;23;20688;-83
2024/03/11 00:49:34;;;;;;;2.77;1.70;;;;;;;9.83;94.72;96511.69;5188379;22;20953;-83
2024/03/11 00:51:38;;;;;;;2.47;1.80;;;;;;;9.84;95.42;96520.34;5160423;23;20679;-83
2024/03/11 00:53:41;;;;;;;2.07;1.50;;;;;;;9.81;94.97;96518.00;5161112;23;20690;-82
2024/03/11 00:55:44;;;;;;;3.07;1.70;;;;;;;9.79;94.24;96525.13;5187206;22;20579;-82
2024/03/11 00:57:48;;;;;;;2.53;1.77;;;;;;;9.74;94.63;96527.31;5161976;23;20577;-81
2024/03/11 00:59:52;;;;;;;2.83;1.80;;;;;;;9.67;95.10;96516.66;5161448;23;20603;-82
2024/03/11 01:01:56;;;;;;;2.83;1.63;;;;;;;9.71;95.47;96535.41;5188673;22;20583;-82
2024/03/11 01:03:59;;;;;;;2.60;1.70;;;;;;;9.68;94.90;96527.88;5160359;23;20691;-82
2024/03/11 01:06:04;;;;;;;2.00;1.60;;;;;;;9.64;95.20;96536.94;5160562;23;20623;-82
2024/03/11 01:08:09;;;;;;;3.00;1.87;;;;;;;9.66;95.92;96545.41;5161739;23;20584;-82
2024/03/11 01:10:12;;;;;;;2.00;1.43;;;;;;;9.68;95.82;96544.31;5136568;23;21320;-82
2024/03/11 01:12:15;;;;;;;2.97;1.97;;;;;;;9.70;96.06;96547.59;5160493;23;20687;-81
2024/03/11 01:14:19;;;;;;;2.53;1.90;;;;;;;9.70;95.32;96545.00;5186449;22;20609;-82
2024/03/11 01:16:22;;;;;;;2.17;1.73;;;;;;;9.66;95.36;96540.22;5160277;23;20588;-82
2024/03/11 01:18:26;;;;;;;2.40;1.70;;;;;;;9.63;95.02;96550.88;5159229;23;20566;-83
2024/03/11 01:20:29;;;;;;;3.27;1.87;;;;;;;9.65;95.37;96559.38;5188142;22;20610;-81
2024/03/11 01:22:33;;;;;;;2.00;1.60;;;;;;;9.66;95.41;96559.22;5133926;23;20585;-81
2024/03/11 01:24:37;;;;;;;2.47;1.87;;;;;;;9.69;95.44;96568.56;5159993;23;20580;-81
2024/03/11 01:26:41;;;;;;;2.93;1.90;;;;;;;9.65;96.48;96565.41;5160999;23;20568;-82
2024/03/11 01:28:49;;;;;;;3.50;1.90;;;;;;;9.60;95.98;96566.78;5160470;23;20595;-82
2024/03/11 01:30:53;;;;;;;2.37;1.80;;;;;;;9.59;96.50;96575.53;5160114;23;20572;-86
2024/03/11 01:32:56;;;;;;;2.80;2.00;;;;;;;9.57;96.66;96569.66;5135110;23;20584;-85
2024/03/11 01:35:00;;;;;;;2.60;1.90;;;;;;;9.48;96.67;96565.25;5161146;23;21135;-87
2024/03/11 01:37:04;;;;;;;2.97;2.20;;;;;;;9.48;96.51;96567.84;5135831;23;20569;-85
2024/03/11 01:39:09;;;;;;;2.70;2.10;;;;;;;9.47;97.18;96568.81;5186811;22;20571;-87
2024/03/11 01:41:13;;;;;;;2.20;1.70;;;;;;;9.40;97.86;96571.13;5188111;22;20901;-87
2024/03/11 01:43:17;;;;;;;2.40;1.97;;;;;;;9.38;97.53;96569.63;5134775;23;20580;-88
2024/03/11 01:45:20;;;;;;;2.60;1.90;;;;;;;9.36;98.04;96568.13;5133769;23;20572;-86
2024/03/11 01:47:26;;;;;;;2.60;1.80;;;;;;;9.41;97.54;96579.75;5160320;23;21025;-87
2024/03/11 01:49:31;;;;;;;2.40;1.90;;;;;;;9.41;97.83;96583.19;5160480;23;20555;-86
2024/03/11 01:51:35;;;;;;;4.93;2.40;;;;;;;9.43;98.63;96580.47;5160644;23;20576;-86
2024/03/11 01:53:39;;;;;;;3.37;2.27;;;;;;;9.39;98.24;96577.28;5160124;23;20586;-86
2024/03/11 01:55:46;;;;;;;3.30;2.20;;;;;;;9.29;98.85;96574.81;5159488;23;20587;-86
2024/03/11 01:57:50;;;;;;;2.47;2.00;;;;;;;9.24;99.47;96579.59;5135384;23;20656;-87
2024/03/11 01:59:54;;;;;;;2.70;1.90;;;;;;;9.21;100.00;96574.66;5159862;23;20580;-86
2024/03/11 02:01:58;;;;;;;2.70;1.93;;;;;;;9.18;99.37;96575.75;5161128;23;20906;-87
2024/03/11 02:04:00;;;;;;;2.20;1.70;;;;;;;9.12;99.97;96570.25;5135354;23;20597;-85
2024/03/11 02:06:04;;;;;;;3.23;2.27;;;;;;;9.07;99.86;96573.25;5135292;23;20601;-86
2024/03/11 02:08:07;;;;;;;3.10;2.10;;;;;;;9.03;99.06;96568.44;5135346;23;20605;-87
2024/03/11 02:10:13;;;;;;;2.83;2.07;;;;;;;9.07;99.20;96577.66;5161292;23;20618;-88
2024/03/11 02:12:18;;;;;;;2.20;1.80;;;;;;;9.12;100.00;96584.06;5135713;23;20619;-87
2024/03/11 02:14:25;;;;;;;3.50;2.20;;;;;;;9.13;99.93;96583.13;5159949;23;21145;-89
2024/03/11 02:16:28;;;;;;;2.70;2.10;;;;;;;9.15;99.48;96581.22;5135386;23;20577;-87
2024/03/11 02:18:34;;;;;;;3.37;2.00;;;;;;;9.17;99.55;96584.53;5137671;23;20581;-85
2024/03/11 02:20:40;;;;;;;4.20;2.00;;;;;;;9.20;99.19;96583.41;5137148;23;20624;-87
2024/03/11 02:22:46;;;;;;;2.43;2.17;;;;;;;9.27;99.50;96579.34;5162202;23;20585;-87
2024/03/11 02:24:51;;;;;;;3.13;2.17;;;;;;;9.33;99.41;96584.81;5162004;23;20611;-87
2024/03/11 02:26:54;;;;;;;2.50;1.90;;;;;;;9.34;98.71;96578.66;5189225;22;21117;-86
2024/03/11 02:29:00;;;;;;;2.87;1.87;;;;;;;9.38;99.61;96578.25;5135620;23;20616;-87
2024/03/11 02:31:05;;;;;;;3.37;2.40;;;;;;;9.44;98.56;96579.47;5188736;22;20597;-87
2024/03/11 02:33:07;;;;;;;2.57;1.90;;;;;;;9.42;99.12;96577.00;5162754;23;20619;-87
2024/03/11 02:35:10;;;;;;;2.90;2.07;;;;;;;9.43;98.04;96580.47;5162022;23;20626;-85
2024/03/11 02:37:16;;;;;;;3.00;2.27;;;;;;;9.43;98.91;96573.47;5188822;22;21496;-87
2024/03/11 02:39:20;;;;;;;3.13;2.30;;;;;;;9.43;97.83;96581.28;5137620;23;20609;-86
2024/03/11 02:41:25;;;;;;;2.30;1.90;;;;;;;9.43;98.35;96576.06;5188690;22;20607;-87
2024/03/11 02:43:28;;;;;;;3.03;2.13;;;;;;;9.43;98.31;96585.66;5134558;23;20581;-87
2024/03/11 02:45:34;;;;;;;3.67;2.00;;;;;;;9.44;97.31;96576.88;5160857;23;20743;-87
2024/03/11 02:47:37;;;;;;;2.97;2.40;;;;;;;9.45;97.12;96578.53;5137538;23;20565;-86
2024/03/11 02:49:40;;;;;;;3.50;2.50;;;;;;;9.46;95.96;96585.41;5137889;23;20561;-87
2024/03/11 02:51:46;;;;;;;2.63;1.90;;;;;;;9.46;97.18;96591.41;5185832;22;20576;-85
2024/03/11 02:53:49;;;;;;;3.53;2.57;;;;;;;9.48;96.16;96588.69;5160919;23;20592;-87
2024/03/11 02:55:52;;;;;;;2.83;2.30;;;;;;;9.47;95.91;96598.28;5189307;22;20554;-87
2024/03/11 02:57:57;;;;;;;2.30;1.90;;;;;;;9.47;95.45;96598.28;5137401;23;21124;-87
2024/03/11 02:59:59;;;;;;;3.80;2.03;;;;;;;9.50;95.61;96602.38;5162455;23;20906;-86
2024/03/11 03:02:03;;;;;;;2.53;2.03;;;;;;;9.49;94.58;96605.94;5188892;22;21157;-87
2024/03/11 03:04:06;;;;;;;2.30;1.90;;;;;;;9.48;94.79;96612.09;5161846;23;20657;-87
2024/03/11 03:06:11;;;;;;;3.83;2.40;;;;;;;9.48;94.41;96615.50;5160659;23;20608;-87
2024/03/11 03:08:15;;;;;;;2.70;2.00;;;;;;;9.48;94.71;96620.72;5161187;23;21227;-86
2024/03/11 03:10:18;;;;;;;2.47;1.93;;;;;;;9.50;93.80;96617.97;5189370;22;21111;-87
2024/03/11 03:12:23;;;;;;;2.30;1.80;;;;;;;9.47;94.19;96620.84;5136471;23;20576;-87
2024/03/11 03:14:28;;;;;;;2.30;1.57;;;;;;;9.47;94.46;96620.84;5161479;23;20642;-85
2024/03/11 03:16:31;;;;;;;2.67;1.80;;;;;;;9.50;94.58;96623.19;5135521;23;21056;-87
2024/03/11 03:18:35;;;;;;;2.50;1.73;;;;;;;9.49;93.56;96629.38;5189716;22;20646;-86
2024/03/11 03:20:40;;;;;;;2.50;1.80;;;;;;;9.48;93.86;96623.31;5161453;23;20623;-87
2024/03/11 03:22:44;;;;;;;2.93;1.80;;;;;;;9.50;94.43;96623.19;5160812;23;20668;-85
2024/03/11 03:24:46;;;;;;;2.73;1.90;;;;;;;9.47;94.08;96621.69;5135560;23;20583;-87
2024/03/11 03:26:50;;;;;;;2.23;1.90;;;;;;;9.42;94.53;96618.63;5161987;23;20663;-85
2024/03/11 03:28:54;;;;;;;2.43;1.80;;;;;;;9.40;93.36;96614.56;5161786;23;20811;-87
2024/03/11 03:30:59;;;;;;;2.53;1.80;;;;;;;9.39;93.42;96616.31;5161875;23;20635;-86
2024/03/11 03:33:03;;;;;;;2.77;2.17;;;;;;;9.36;94.43;96622.75;5137541;23;21283;-87
2024/03/11 03:35:08;;;;;;;3.73;2.40;;;;;;;9.35;94.13;96621.94;5188373;22;20916;-86
2024/03/11 03:37:10;;;;;;;2.53;2.00;;;;;;;9.33;94.43;96623.03;5136194;23;20664;-86
2024/03/11 03:39:13;;;;;;;2.67;2.10;;;;;;;9.30;93.72;96631.91;5137000;23;20620;-84
2024/03/11 03:41:17;;;;;;;2.53;2.00;;;;;;;9.26;94.17;96627.09;5188937;22;20615;-88
2024/03/11 03:43:20;;;;;;;2.97;1.87;;;;;;;9.21;93.78;96626.69;5136926;23;20580;-87
2024/03/11 03:45:23;;;;;;;2.67;1.90;;;;;;;9.23;93.60;96636.00;5135421;23;20703;-85
2024/03/11 03:47:31;;;;;;;2.33;1.80;;;;;;;9.21;94.38;96629.28;5136894;23;20570;-87
2024/03/11 03:49:34;;;;;;;2.33;1.97;;;;;;;9.25;93.75;96625.47;5135238;23;20935;-81
2024/03/11 03:51:37;;;;;;;2.10;1.60;;;;;;;9.25;93.38;96633.28;5159944;23;20615;-82
2024/03/11 03:53:40;;;;;;;3.30;2.10;;;;;;;9.23;94.21;96632.56;5159913;23;20631;-82
2024/03/11 03:55:44;;;;;;;2.10;1.63;;;;;;;9.15;94.57;96635.81;5159745;23;20608;-82
2024/03/11 03:57:47;;;;;;;2.80;2.10;;;;;;;9.11;94.80;96637.06;5136508;23;20577;-81
2024/03/11 03:59:52;;;;;;;2.37;1.90;;;;;;;9.12;94.54;96643.06;5161068;23;20600;-83
2024/03/11 04:01:56;;;;;;;2.83;2.30;;;;;;;9.08;95.16;96639.06;5135170;23;20652;-82
2024/03/11 04:04:01;;;;;;;2.50;1.93;;;;;;;9.05;94.94;96642.78;5134628;23;20651;-81
2024/03/11 04:06:05;;;;;;;4.53;2.20;;;;;;;9.00;95.31;96644.13;5161043;23;20951;-81
2024/03/11 04:08:08;;;;;;;3.40;2.30;;;;;;;9.01;94.31;96640.56;5161978;23;20666;-82
2024/03/11 04:10:13;;;;;;;2.83;2.10;;;;;;;9.00;94.32;96644.13;5161474;23;20584;-81
2024/03/11 04:12:17;;;;;;;2.67;1.77;;;;;;;8.97;95.08;96647.78;5161091;23;20575;-81
2024/03/11 04:14:21;;;;;;;2.43;1.97;;;;;;;8.99;94.83;96647.66;5187923;22;20614;-81
2024/03/11 04:16:25;;;;;;;4.60;1.93;;;;;;;9.00;95.17;96644.94;5186768;22;20674;-81
2024/03/11 04:18:30;;;;;;;1.90;1.60;;;;;;;9.00;95.82;96647.53;5188265;22;21295;-82
2024/03/11 04:20:35;;;;;;;2.40;1.77;;;;;;;8.94;95.11;96642.88;5134583;23;20581;-81
2024/03/11 04:22:41;;;;;;;2.83;1.63;;;;;;;8.92;94.69;96650.94;5136883;23;20613;-82
2024/03/11 04:24:44;;;;;;;4.53;1.50;;;;;;;8.88;94.82;96641.75;5158530;23;20568;-81
2024/03/11 04:26:47;;;;;;;2.03;1.43;;;;;;;8.87;93.99;96643.53;5188263;22;20571;-81
2024/03/11 04:28:50;;;;;;;3.00;1.60;;;;;;;8.86;94.02;96651.47;5160155;23;20591;-81
2024/03/11 04:30:55;;;;;;;3.25;1.80;;;;;;;8.84;95.46;96653.34;5159787;23;20592;-81
2024/03/11 04:32:59;;;;;;;2.50;1.53;;;;;;;8.79;95.45;96642.53;5137135;23;20259;-82
2024/03/11 04:35:04;;;;;;;2.20;1.73;;;;;;;8.76;95.15;96646.19;5160411;23;20634;-81
2024/03/11 04:37:09;;;;;;;2.50;1.43;;;;;;;8.75;95.65;96651.50;5158362;23;20208;-81
2024/03/11 04:39:14;;;;;;;2.20;1.50;;;;;;;8.74;95.79;96647.28;5160591;23;20599;-81
2024/03/11 04:41:18;;;;;;;2.50;1.50;;;;;;;8.72;95.31;96644.81;5161569;23;21183;-81
2024/03/11 04:43:22;;;;;;;2.10;1.50;;;;;;;8.72;94.78;96656.97;5188227;22;20614;-81
2024/03/11 04:45:26;;;;;;;1.90;1.50;;;;;;;8.71;94.71;96657.94;5187338;22;20582;-81
2024/03/11 04:47:30;;;;;;;2.10;1.60;;;;;;;8.70;95.57;96661.47;5109810;23;20694;-82
2024/03/11 04:49:33;;;;;;;2.27;1.70;;;;;;;8.69;94.58;96655.47;5134177;23;20648;-82
2024/03/11 04:51:37;;;;;;;2.37;1.57;;;;;;;8.63;94.96;96655.13;5160526;23;20588;-82
2024/03/11 04:53:43;;;;;;;2.30;1.30;;;;;;;8.60;95.54;96665.78;5160199;23;20584;-81
2024/03/11 04:55:47;;;;;;;2.47;1.50;;;;;;;8.57;94.40;96664.28;5186443;22;20574;-82
2024/03/11 04:57:52;;;;;;;2.60;1.52;;;;;;;8.55;94.00;96653.22;5135535;23;20600;-82
2024/03/11 04:59:55;;;;;;;3.43;1.80;;;;;;;8.54;94.38;96663.72;5159742;23;20170;-81
2024/03/11 05:01:59;;;;;;;2.23;1.60;;;;;;;8.51;95.37;96667.41;5135491;23;20580;-82
2024/03/11 05:04:03;;;;;;;2.47;1.53;;;;;;;8.51;94.67;96658.78;5185287;22;20637;-82
2024/03/11 05:06:08;;;;;;;9.60;1.57;;;;;;;8.44;93.71;96666.25;5136377;23;20679;-82
2024/03/11 05:08:12;;;;;;;2.13;1.50;;;;;;;8.40;94.46;96673.59;5160368;23;20674;-81
2024/03/11 05:10:17;;;;;;;2.10;1.40;;;;;;;8.30;94.18;96670.09;5187118;22;20184;-82
2024/03/11 05:12:20;;;;;;;2.50;1.53;;;;;;;8.25;93.18;96674.84;5187400;22;20234;-82
2024/03/11 05:14:24;;;;;;;2.50;1.98;;;;;;;8.21;93.68;96673.44;5187328;22;20571;-82
2024/03/11 05:16:27;;;;;;;2.90;1.83;;;;;;;8.15;94.93;96669.59;5161283;23;20181;-82
2024/03/11 05:18:30;;;;;;;4.75;1.80;;;;;;;8.14;94.74;96683.50;5136693;23;20185;-82
2024/03/11 05:20:33;;;;;;;2.90;1.60;;;;;;;8.14;95.44;96680.09;5135966;23;20182;-82
2024/03/11 05:22:37;;;;;;;2.10;1.25;;;;;;;8.10;94.05;96679.50;5135312;23;20221;-81
2024/03/11 05:24:40;;;;;;;2.00;1.30;;;;;;;8.10;94.74;96679.50;5185263;22;20647;-81
2024/03/11 05:26:45;;;;;;;2.35;1.30;;;;;;;8.08;94.10;96678.78;5187196;22;20184;-81
2024/03/11 05:28:49;;;;;;;3.03;1.35;;;;;;;8.03;95.04;96686.13;5137287;23;20232;-81
2024/03/11 05:30:52;;;;;;;3.00;1.45;;;;;;;8.00;94.67;96688.16;5135616;23;20178;-81
2024/03/11 05:32:56;;;;;;;10.48;1.73;;;;;;;7.96;94.35;96693.72;5187612;22;20173;-82
2024/03/11 05:35:00;;;;;;;2.57;1.73;;;;;;;7.91;94.03;96681.13;5160395;23;20180;-81
2024/03/11 05:37:06;;;;;;;2.00;1.77;;;;;;;7.90;94.57;96695.03;5160583;23;20608;-82
2024/03/11 05:39:09;;;;;;;2.22;1.50;;;;;;;7.88;93.53;96699.53;5160290;23;20166;-81
2024/03/11 05:41:13;;;;;;;2.30;1.42;;;;;;;7.89;93.53;96705.53;5161759;23;20260;-82
2024/03/11 05:43:17;;;;;;;2.30;1.30;;;;;;;7.87;95.06;96704.84;5161217;23;20223;-82
2024/03/11 05:45:20;;;;;;;2.42;1.42;;;;;;;7.83;93.74;96704.22;5159585;23;20277;-81
2024/03/11 05:47:25;;;;;;;2.60;1.40;;;;;;;7.79;93.68;96713.22;5134727;23;20255;-82
2024/03/11 05:49:28;;;;;;;4.28;1.83;;;;;;;7.80;94.51;96716.63;5161369;23;20259;-81
2024/03/11 05:51:35;;;;;;;2.33;1.30;;;;;;;7.77;93.95;96724.66;5137799;23;20215;-82
2024/03/11 05:53:38;;;;;;;2.50;1.60;;;;;;;7.73;94.71;96733.66;5161722;23;20174;-82
2024/03/11 05:55:41;;;;;;;2.70;1.50;;;;;;;7.69;94.05;96733.06;5135125;23;20273;-82
2024/03/11 05:57:44;;;;;;;10.43;2.20;;;;;;;7.66;94.58;96738.47;5137480;23;20182;-82
2024/03/11 05:59:49;;;;;;;2.00;1.70;;;;;;;7.66;93.33;96742.84;5137681;23;20216;-81
2024/03/11 06:01:55;;;;;;;2.00;1.38;;;;;;;7.69;93.85;96742.63;5163470;23;20180;-84
2024/03/11 06:03:59;;;;;;;2.45;1.60;;;;;;;7.69;94.69;96746.03;5137356;23;20264;-81
2024/03/11 06:06:03;;;;;;;2.50;1.90;;;;;;;7.73;93.92;96749.22;5163247;23;20324;-81
2024/03/11 06:08:08;;;;;;;3.08;2.20;;;;;;;7.91;94.19;96755.53;5164098;23;20607;-84
2024/03/11 06:10:11;;;;;;;2.88;1.90;;;;;;;8.12;92.91;96763.31;5137426;23;20170;-87
2024/03/11 06:12:14;;;;;;;2.90;1.65;;;;;;;8.32;92.16;96769.50;5163617;23;20264;-85
2024/03/11 06:14:18;;;;;;;4.60;1.60;;;;;;;8.46;92.40;96772.63;5163791;23;20202;-87
2024/03/11 06:16:24;;;;;;;3.08;2.38;;;;;;;8.57;92.08;96776.00;5138588;23;20260;-91
2024/03/11 06:18:28;;;;;;;4.15;2.63;;;;;;;8.68;91.84;96777.75;5163326;23;20170;-87
2024/03/11 06:20:32;;;;;;;3.30;2.15;;;;;;;8.82;91.65;96787.81;5189518;22;20192;-88
2024/03/11 06:22:37;;;;;;;2.23;1.53;;;;;;;8.88;90.43;96789.91;5163144;23;20205;-88
2024/03/11 06:24:41;;;;;;;5.10;1.90;;;;;;;8.95;88.87;96789.28;5162745;23;21400;-88
2024/03/11 06:26:46;;;;;;;2.65;1.90;;;;;;;9.03;89.43;96790.28;5138225;23;20577;-89
2024/03/11 06:28:49;;;;;;;2.50;1.80;;;;;;;9.14;89.14;96784.19;5162266;23;20181;-91
2024/03/11 06:30:53;;;;;;;3.60;2.70;;;;;;;9.21;89.16;96782.72;5136146;23;20233;-89
2024/03/11 06:32:59;;;;;;;3.72;2.50;;;;;;;9.38;89.67;96801.16;5138090;23;20201;-89
2024/03/11 06:35:04;;;;;;;3.75;2.38;;;;;;;9.58;89.78;96808.13;5161936;23;20577;-89
2024/03/11 06:37:10;;;;;;;2.97;2.23;;;;;;;9.70;90.22;96801.88;5162610;23;20533;-88
2024/03/11 06:39:14;;;;;;;4.10;2.03;;;;;;;9.84;88.79;96805.75;5162517;23;21115;-88
2024/03/11 06:41:19;;;;;;;3.30;1.70;;;;;;;10.03;88.05;96816.28;5162884;23;20189;-88
2024/03/11 06:43:23;;;;;;;2.87;1.50;;;;;;;10.28;87.36;96826.19;5161777;23;20623;-87
2024/03/11 06:45:26;;;;;;;3.07;1.40;;;;;;;10.52;86.58;96840.50;5160220;23;20580;-89
2024/03/11 06:47:30;;;;;;;2.30;1.40;;;;;;;10.72;85.15;96837.00;5137912;23;20667;-88
2024/03/11 06:49:35;;;;;;;2.53;1.43;;;;;;;10.91;86.04;96847.41;5136192;23;20584;-89
2024/03/11 06:51:38;;;;;;;2.60;1.60;;;;;;;11.10;84.21;96844.81;5161305;23;20576;-91
2024/03/11 06:53:42;;;;;;;3.10;1.47;;;;;;;11.28;84.57;96854.41;5137192;23;20580;-90
2024/03/11 06:55:46;;;;;;;2.33;1.50;;;;;;;11.45;83.35;96848.47;5163258;23;20595;-90
2024/03/11 06:57:49;;;;;;;1.97;1.40;;;;;;;11.65;82.30;96856.16;5161986;23;20622;-90
2024/03/11 06:59:52;;;;;;;2.33;1.30;;;;;;;11.80;81.20;96866.00;5188977;22;20563;-89
2024/03/11 07:01:56;;;;;;;2.83;1.50;;;;;;;11.99;81.76;96859.88;5188525;22;20645;-90
2024/03/11 07:04:01;;;;;;;1.90;1.30;;;;;;;12.20;80.25;96871.75;5136677;23;21184;-89
2024/03/11 07:06:05;;;;;;;4.20;1.47;;;;;;;12.43;78.46;96873.88;5161069;23;20952;-91
2024/03/11 07:08:09;;;;;;;3.00;1.53;;;;;;;12.67;78.98;96879.34;5162818;23;20618;-91
2024/03/11 07:10:15;;;;;;;2.47;1.50;;;;;;;12.90;80.00;96884.06;5139029;23;20589;-91
2024/03/11 07:12:20;;;;;;;6.07;2.43;;;;;;;13.06;78.25;96881.56;5163613;23;20584;-92
2024/03/11 07:14:25;;;;;;;4.43;1.77;;;;;;;13.20;80.47;96886.31;5189356;22;20575;-91
2024/03/11 07:16:31;;;;;;;3.13;1.50;;;;;;;13.05;76.85;96887.81;5137399;23;20576;-90
2024/03/11 07:18:35;;;;;;;3.33;1.50;;;;;;;12.90;77.98;96886.66;5188620;22;20614;-88
2024/03/11 07:20:39;;;;;;;2.83;1.60;;;;;;;12.90;79.13;96888.44;5138864;23;20575;-85
2024/03/11 07:22:47;;;;;;;4.30;1.30;;;;;;;13.15;78.52;96890.34;5162290;23;20642;-87
2024/03/11 07:24:51;;;;;;;2.47;1.20;;;;;;;13.44;79.25;96895.19;5136237;23;20663;-88
2024/03/11 07:26:55;;;;;;;4.00;3.20;;;;;;;13.70;80.46;96893.44;5137129;23;20579;-85
2024/03/11 07:28:58;;;;;;;4.80;3.10;;;;;;;13.84;79.71;96893.69;5162962;23;20616;-86
2024/03/11 07:31:01;;;;;;;3.90;2.70;;;;;;;13.99;78.98;96899.19;5163328;23;20661;-86
2024/03/11 07:33:06;;;;;;;3.60;2.80;;;;;;;14.00;79.75;96906.09;5189824;22;21133;-85
2024/03/11 07:35:10;;;;;;;3.57;2.67;;;;;;;13.70;79.45;96902.09;5136288;23;20604;-84
2024/03/11 07:37:13;;;;;;;3.50;1.93;;;;;;;13.48;79.43;96903.56;5136145;23;20689;-84
2024/03/11 07:39:18;;;;;;;2.40;1.30;;;;;;;13.41;77.65;96902.50;5189488;22;20570;-85
2024/03/11 07:41:24;;;;;;;3.23;1.33;;;;;;;13.42;78.38;96909.41;5136892;23;20610;-85
2024/03/11 07:43:28;;;;;;;2.67;1.20;;;;;;;13.38;76.95;96908.91;5136269;23;20580;-85
2024/03/11 07:45:31;;;;;;;2.13;1.10;;;;;;;13.57;79.72;96916.56;5187551;22;20580;-84
2024/03/11 07:47:34;;;;;;;2.13;1.00;;;;;;;13.82;79.01;96911.38;5160143;23;20598;-85
2024/03/11 07:49:37;;;;;;;3.40;1.63;;;;;;;14.02;77.85;96919.84;5162105;23;21103;-82
2024/03/11 07:51:40;;;;;;;2.57;1.20;;;;;;;14.28;75.71;96924.13;5161315;23;20580;-83
2024/03/11 07:53:45;;;;;;;2.20;1.03;;;;;;;14.48;75.67;96925.53;5162164;23;20586;-83
2024/03/11 07:55:50;;;;;;;4.93;3.13;;;;;;;14.48;76.99;96930.78;5135376;23;20601;-83
2024/03/11 07:57:53;;;;;;;3.50;2.40;;;;;;;14.48;77.38;96930.78;5161821;23;20594;-82
2024/03/11 07:59:56;;;;;;;3.80;1.30;;;;;;;14.44;76.41;96926.84;5134856;23;21212;-83
2024/03/11 08:02:00;;;;;;;3.17;1.67;;;;;;;14.49;76.63;96928.00;5161372;23;20573;-82
2024/03/11 08:04:04;;;;;;;4.50;2.43;;;;;;;14.71;75.58;96930.91;5161603;23;20674;-82
2024/03/11 08:06:09;;;;;;;2.40;1.27;;;;;;;14.92;75.41;96939.19;5136927;23;20698;-82
2024/03/11 08:08:13;;;;;;;1.80;0.73;;;;;;;15.09;73.09;96944.34;5186177;22;20587;-83
2024/03/11 08:10:16;;;;;;;3.40;2.30;;;;;;;15.19;73.84;96947.66;5161322;23;20621;-82
2024/03/11 08:12:23;;;;;;;2.00;1.10;;;;;;;15.22;72.03;96949.97;5188865;22;20651;-82
2024/03/11 08:14:27;;;;;;;2.17;0.97;;;;;;;15.36;75.04;96949.34;5136299;23;20655;-83
2024/03/11 08:16:30;;;;;;;2.93;1.10;;;;;;;15.46;73.10;96957.09;5188411;22;20585;-82
2024/03/11 08:18:33;;;;;;;2.00;0.90;;;;;;;15.48;71.72;96955.13;5190013;22;20581;-82
2024/03/11 08:20:37;;;;;;;2.50;1.00;;;;;;;15.45;72.30;96955.44;5138227;23;20584;-82
2024/03/11 08:22:43;;;;;;;2.23;1.00;;;;;;;15.37;70.45;96960.69;5136200;23;20582;-82
2024/03/11 08:24:47;;;;;;;2.57;0.83;;;;;;;15.42;73.38;96968.91;5188971;22;20601;-82
2024/03/11 08:26:51;;;;;;;2.63;1.20;;;;;;;15.44;70.89;96965.13;5189639;22;20577;-82
2024/03/11 08:28:55;;;;;;;2.07;0.77;;;;;;;15.59;72.97;96961.69;5135850;23;20592;-82
2024/03/11 08:30:59;;;;;;;2.10;0.80;;;;;;;15.59;71.33;96960.84;5160660;23;20665;-82
2024/03/11 08:33:03;;;;;;;3.53;0.97;;;;;;;15.61;73.60;96966.78;5162798;23;20585;-83
2024/03/11 08:35:09;;;;;;;2.33;1.00;;;;;;;15.76;69.55;96973.88;5136096;23;20580;-83
2024/03/11 08:37:14;;;;;;;1.90;0.70;;;;;;;15.77;71.63;96969.41;5161561;23;21156;-82
2024/03/11 08:39:21;;;;;;;3.13;0.93;;;;;;;15.95;70.95;96976.19;5186484;22;20632;-83
2024/03/11 08:41:24;;;;;;;1.70;0.70;;;;;;;16.10;71.71;96987.66;5161314;23;20599;-82
2024/03/11 08:43:28;;;;;;;2.43;0.80;;;;;;;16.16;71.45;96987.00;5188003;22;20581;-82
2024/03/11 08:45:34;;;;;;;2.13;0.93;;;;;;;16.17;69.33;96986.03;5160959;23;20603;-83
2024/03/11 08:47:39;;;;;;;2.30;0.80;;;;;;;16.08;69.08;96982.56;5162460;23;20590;-83
2024/03/11 08:49:44;;;;;;;2.50;1.00;;;;;;;16.06;69.25;96984.56;5161660;23;21196;-82
2024/03/11 08:51:48;;;;;;;1.70;0.60;;;;;;;16.16;66.17;96979.94;5160631;23;20678;-82
2024/03/11 08:53:52;;;;;;;1.87;0.70;;;;;;;16.21;67.97;96977.63;5160574;23;20586;-82
2024/03/11 08:55:55;;;;;;;1.83;0.67;;;;;;;16.11;68.88;96978.78;5136708;23;20604;-83
2024/03/11 08:57:58;;;;;;;2.00;0.77;;;;;;;16.06;69.15;96981.91;5136526;23;20918;-82
2024/03/11 09:00:03;;;;;;;2.13;0.83;;;;;;;16.11;67.86;96984.06;5161321;23;21238;-82
2024/03/11 09:02:09;;;;;;;1.83;0.70;;;;;;;16.25;67.96;96984.25;5161448;23;20635;-83
2024/03/11 09:04:12;;;;;;;2.13;0.93;;;;;;;16.24;70.03;96981.78;5134623;23;20580;-82
2024/03/11 09:06:15;;;;;;;1.70;0.67;;;;;;;16.16;71.58;96979.94;5183460;22;21005;-82
2024/03/11 09:08:20;;;;;;;2.03;0.90;;;;;;;16.23;67.74;96982.75;5159442;23;20575;-82
2024/03/11 09:10:23;;;;;;;5.10;1.00;;;;;;;16.36;69.27;96978.63;5160602;23;20957;-82
2024/03/11 09:12:26;;;;;;;2.03;1.07;;;;;;;16.34;68.33;96990.31;5136908;23;20634;-82
2024/03/11 09:14:31;;;;;;;1.60;0.70;;;;;;;16.32;68.95;96985.22;5159382;23;20927;-82
2024/03/11 09:16:36;;;;;;;1.83;0.70;;;;;;;16.42;68.53;96991.13;5158643;23;20625;-82
2024/03/11 09:18:41;;;;;;;2.00;0.87;;;;;;;16.51;67.00;96996.19;5187219;22;21207;-82
2024/03/11 09:20:45;;;;;;;1.77;0.73;;;;;;;16.41;67.75;96992.09;5159897;23;20560;-84
2024/03/11 09:22:49;;;;;;;2.00;0.70;;;;;;;16.40;68.45;97002.81;5161291;23;20637;-86
2024/03/11 09:24:52;;;;;;;1.80;0.80;;;;;;;16.39;67.97;96996.72;5134331;23;20661;-86
2024/03/11 09:26:55;;;;;;;4.87;0.93;;;;;;;16.52;70.66;97000.50;5160262;23;20971;-85
2024/03/11 09:28:58;;;;;;;2.33;0.73;;;;;;;16.62;69.34;97005.56;5187683;22;20593;-84
2024/03/11 09:31:01;;;;;;;2.53;0.90;;;;;;;16.71;67.33;97007.19;5135743;23;20581;-84
2024/03/11 09:33:05;;;;;;;2.40;0.70;;;;;;;16.68;67.18;97010.97;5135732;23;20710;-84
2024/03/11 09:35:11;;;;;;;2.43;0.77;;;;;;;16.49;66.02;97014.97;5160308;23;20578;-85
2024/03/11 09:37:14;;;;;;;1.90;0.80;;;;;;;16.34;66.94;97014.00;5188404;22;21099;-85
2024/03/11 09:39:19;;;;;;;2.10;1.00;;;;;;;16.42;66.34;97013.97;5135589;23;20585;-85
2024/03/11 09:41:22;;;;;;;1.90;0.80;;;;;;;16.47;68.78;97015.13;5136270;23;20623;-87
2024/03/11 09:43:27;;;;;;;5.30;2.40;;;;;;;16.42;68.82;97013.97;5135640;23;21043;-87
2024/03/11 09:45:34;;;;;;;20.97;2.50;;;;;;;16.32;65.66;97021.25;5134628;23;20604;-87
2024/03/11 09:47:41;;;;;;;4.00;2.10;;;;;;;16.33;66.29;97015.81;5160228;23;20567;-87
2024/03/11 09:49:45;;;;;;;2.70;1.27;;;;;;;16.39;67.75;97023.06;5187368;22;20585;-87